sensor_id;sensor_type;location;lat;lon;timestamp;P1;durP1;ratioP1;P2;durP2;ratioP2
20609;SDS011;10463;52.378;9.688;2022-10-16T00:02:32;1.80;;;1.00;;
20609;SDS011;10463;52.378;9.688;2022-10-16T00:05:19;2.40;;;1.03;;
20609;SDS011;10463;52.378;9.688;2022-10-16T00:08:04;1.80;;;1.03;;
20609;SDS011;10463;52.378;9.688;2022-10-16T00:10:49;1.97;;;1.10;;
20609;SDS011;10463;52.378;9.688;2022-10-16T00:13:34;1.47;;;0.90;;
20609;SDS011;10463;52.378;9.688;2022-10-16T00:16:21;1.40;;;0.80;;
20609;SDS011;10463;52.378;9.688;2022-10-16T00:19:06;1.37;;;0.90;;
20609;SDS011;10463;52.378;9.688;2022-10-16T00:21:52;2.17;;;1.00;;
20609;SDS011;10463;52.378;9.688;2022-10-16T00:24:37;1.40;;;1.00;;
20609;SDS011;10463;52.378;9.688;2022-10-16T00:27:22;1.90;;;0.90;;
20609;SDS011;10463;52.378;9.688;2022-10-16T00:30:08;1.57;;;1.10;;
20609;SDS011;10463;52.378;9.688;2022-10-16T00:32:53;2.03;;;1.10;;
20609;SDS011;10463;52.378;9.688;2022-10-16T00:35:38;1.47;;;0.93;;
20609;SDS011;10463;52.378;9.688;2022-10-16T00:38:24;1.40;;;0.70;;
20609;SDS011;10463;52.378;9.688;2022-10-16T00:41:10;1.70;;;1.00;;
20609;SDS011;10463;52.378;9.688;2022-10-16T00:43:58;2.10;;;0.90;;
20609;SDS011;10463;52.378;9.688;2022-10-16T00:46:45;1.50;;;1.00;;
20609;SDS011;10463;52.378;9.688;2022-10-16T00:49:30;1.57;;;0.80;;
20609;SDS011;10463;52.378;9.688;2022-10-16T00:52:14;1.63;;;0.90;;
20609;SDS011;10463;52.378;9.688;2022-10-16T00:55:02;1.40;;;0.90;;
20609;SDS011;10463;52.378;9.688;2022-10-16T00:57:48;1.50;;;0.80;;
20609;SDS011;10463;52.378;9.688;2022-10-16T01:00:35;5.40;;;1.07;;
20609;SDS011;10463;52.378;9.688;2022-10-16T01:03:25;1.60;;;1.10;;
20609;SDS011;10463;52.378;9.688;2022-10-16T01:06:23;1.23;;;0.70;;
20609;SDS011;10463;52.378;9.688;2022-10-16T01:09:13;1.70;;;1.00;;
20609;SDS011;10463;52.378;9.688;2022-10-16T01:12:06;1.27;;;0.73;;
20609;SDS011;10463;52.378;9.688;2022-10-16T01:14:56;2.27;;;0.80;;
20609;SDS011;10463;52.378;9.688;2022-10-16T01:17:46;2.50;;;1.00;;
20609;SDS011;10463;52.378;9.688;2022-10-16T01:20:37;1.70;;;0.90;;
20609;SDS011;10463;52.378;9.688;2022-10-16T01:23:36;1.40;;;0.80;;
20609;SDS011;10463;52.378;9.688;2022-10-16T01:26:35;1.60;;;1.00;;
20609;SDS011;10463;52.378;9.688;2022-10-16T01:29:33;1.53;;;0.93;;
20609;SDS011;10463;52.378;9.688;2022-10-16T01:32:27;1.40;;;0.90;;
20609;SDS011;10463;52.378;9.688;2022-10-16T01:35:20;1.90;;;1.00;;
20609;SDS011;10463;52.378;9.688;2022-10-16T01:38:12;1.43;;;0.90;;
20609;SDS011;10463;52.378;9.688;2022-10-16T01:41:02;2.27;;;1.30;;
20609;SDS011;10463;52.378;9.688;2022-10-16T01:43:55;1.60;;;0.97;;
20609;SDS011;10463;52.378;9.688;2022-10-16T01:46:49;1.50;;;0.90;;
20609;SDS011;10463;52.378;9.688;2022-10-16T01:49:37;1.50;;;0.90;;
20609;SDS011;10463;52.378;9.688;2022-10-16T01:52:25;1.60;;;0.80;;
20609;SDS011;10463;52.378;9.688;2022-10-16T01:55:17;1.40;;;0.83;;
20609;SDS011;10463;52.378;9.688;2022-10-16T01:58:09;2.37;;;1.00;;
20609;SDS011;10463;52.378;9.688;2022-10-16T02:00:55;1.20;;;0.67;;
20609;SDS011;10463;52.378;9.688;2022-10-16T02:03:42;1.70;;;0.90;;
20609;SDS011;10463;52.378;9.688;2022-10-16T02:06:29;2.00;;;0.80;;
20609;SDS011;10463;52.378;9.688;2022-10-16T02:09:14;1.97;;;1.20;;
20609;SDS011;10463;52.378;9.688;2022-10-16T02:12:03;1.60;;;0.90;;
20609;SDS011;10463;52.378;9.688;2022-10-16T02:14:53;2.27;;;1.00;;
20609;SDS011;10463;52.378;9.688;2022-10-16T02:17:38;2.03;;;1.00;;
20609;SDS011;10463;52.378;9.688;2022-10-16T02:20:27;1.50;;;0.87;;
20609;SDS011;10463;52.378;9.688;2022-10-16T02:23:19;1.43;;;0.97;;
20609;SDS011;10463;52.378;9.688;2022-10-16T02:26:13;2.20;;;0.90;;
20609;SDS011;10463;52.378;9.688;2022-10-16T02:29:04;1.37;;;0.90;;
20609;SDS011;10463;52.378;9.688;2022-10-16T02:31:54;1.87;;;1.20;;
20609;SDS011;10463;52.378;9.688;2022-10-16T02:34:42;2.20;;;1.17;;
20609;SDS011;10463;52.378;9.688;2022-10-16T02:37:30;1.90;;;0.93;;
20609;SDS011;10463;52.378;9.688;2022-10-16T02:40:17;2.23;;;0.90;;
20609;SDS011;10463;52.378;9.688;2022-10-16T02:43:04;2.33;;;1.20;;
20609;SDS011;10463;52.378;9.688;2022-10-16T02:45:49;2.00;;;0.90;;
20609;SDS011;10463;52.378;9.688;2022-10-16T02:48:34;1.40;;;1.00;;
20609;SDS011;10463;52.378;9.688;2022-10-16T02:51:19;2.70;;;1.20;;
20609;SDS011;10463;52.378;9.688;2022-10-16T02:54:05;1.47;;;0.93;;
20609;SDS011;10463;52.378;9.688;2022-10-16T02:56:50;1.97;;;1.20;;
20609;SDS011;10463;52.378;9.688;2022-10-16T02:59:35;3.60;;;1.30;;
20609;SDS011;10463;52.378;9.688;2022-10-16T03:02:20;1.60;;;0.90;;
20609;SDS011;10463;52.378;9.688;2022-10-16T03:05:05;1.70;;;0.90;;
20609;SDS011;10463;52.378;9.688;2022-10-16T03:07:51;1.70;;;0.97;;
20609;SDS011;10463;52.378;9.688;2022-10-16T03:10:38;1.73;;;1.10;;
20609;SDS011;10463;52.378;9.688;2022-10-16T03:13:22;3.00;;;1.23;;
20609;SDS011;10463;52.378;9.688;2022-10-16T03:16:07;1.40;;;0.90;;
20609;SDS011;10463;52.378;9.688;2022-10-16T03:18:52;2.63;;;1.20;;
20609;SDS011;10463;52.378;9.688;2022-10-16T03:21:36;1.70;;;1.10;;
20609;SDS011;10463;52.378;9.688;2022-10-16T03:24:21;2.03;;;1.20;;
20609;SDS011;10463;52.378;9.688;2022-10-16T03:27:07;2.43;;;1.27;;
20609;SDS011;10463;52.378;9.688;2022-10-16T03:29:52;2.10;;;0.93;;
20609;SDS011;10463;52.378;9.688;2022-10-16T03:32:37;1.40;;;1.00;;
20609;SDS011;10463;52.378;9.688;2022-10-16T03:35:22;1.97;;;1.17;;
20609;SDS011;10463;52.378;9.688;2022-10-16T03:38:08;1.97;;;1.10;;
20609;SDS011;10463;52.378;9.688;2022-10-16T03:40:52;2.73;;;1.13;;
20609;SDS011;10463;52.378;9.688;2022-10-16T03:43:38;1.83;;;1.10;;
20609;SDS011;10463;52.378;9.688;2022-10-16T03:46:23;1.50;;;0.90;;
20609;SDS011;10463;52.378;9.688;2022-10-16T03:49:08;1.50;;;1.00;;
20609;SDS011;10463;52.378;9.688;2022-10-16T03:51:53;1.50;;;1.10;;
20609;SDS011;10463;52.378;9.688;2022-10-16T03:54:39;1.40;;;0.93;;
20609;SDS011;10463;52.378;9.688;2022-10-16T03:57:24;2.13;;;1.00;;
20609;SDS011;10463;52.378;9.688;2022-10-16T04:00:12;1.80;;;1.03;;
20609;SDS011;10463;52.378;9.688;2022-10-16T04:02:57;1.40;;;0.90;;
20609;SDS011;10463;52.378;9.688;2022-10-16T04:05:41;3.97;;;1.30;;
20609;SDS011;10463;52.378;9.688;2022-10-16T04:08:26;2.00;;;1.03;;
20609;SDS011;10463;52.378;9.688;2022-10-16T04:11:12;1.93;;;1.10;;
20609;SDS011;10463;52.378;9.688;2022-10-16T04:13:56;1.70;;;0.90;;
20609;SDS011;10463;52.378;9.688;2022-10-16T04:16:43;1.70;;;0.97;;
20609;SDS011;10463;52.378;9.688;2022-10-16T04:19:27;1.40;;;1.00;;
20609;SDS011;10463;52.378;9.688;2022-10-16T04:22:12;2.27;;;1.10;;
20609;SDS011;10463;52.378;9.688;2022-10-16T04:24:57;2.10;;;1.33;;
20609;SDS011;10463;52.378;9.688;2022-10-16T04:27:42;1.70;;;0.97;;
20609;SDS011;10463;52.378;9.688;2022-10-16T04:30:27;1.73;;;1.00;;
20609;SDS011;10463;52.378;9.688;2022-10-16T04:33:13;2.30;;;1.10;;
20609;SDS011;10463;52.378;9.688;2022-10-16T04:35:59;1.80;;;1.00;;
20609;SDS011;10463;52.378;9.688;2022-10-16T04:38:45;1.80;;;1.17;;
20609;SDS011;10463;52.378;9.688;2022-10-16T04:41:29;2.40;;;1.07;;
20609;SDS011;10463;52.378;9.688;2022-10-16T04:44:14;1.77;;;1.00;;
20609;SDS011;10463;52.378;9.688;2022-10-16T04:46:59;3.03;;;1.20;;
20609;SDS011;10463;52.378;9.688;2022-10-16T04:49:45;1.80;;;1.00;;
20609;SDS011;10463;52.378;9.688;2022-10-16T04:52:30;1.63;;;1.10;;
20609;SDS011;10463;52.378;9.688;2022-10-16T04:55:15;2.00;;;1.10;;
20609;SDS011;10463;52.378;9.688;2022-10-16T04:58:00;1.80;;;0.90;;
20609;SDS011;10463;52.378;9.688;2022-10-16T05:00:45;2.23;;;1.20;;
20609;SDS011;10463;52.378;9.688;2022-10-16T05:03:30;2.17;;;1.00;;
20609;SDS011;10463;52.378;9.688;2022-10-16T05:06:16;1.70;;;1.00;;
20609;SDS011;10463;52.378;9.688;2022-10-16T05:09:01;1.60;;;1.00;;
20609;SDS011;10463;52.378;9.688;2022-10-16T05:11:46;1.40;;;0.80;;
20609;SDS011;10463;52.378;9.688;2022-10-16T05:14:31;1.90;;;1.17;;
20609;SDS011;10463;52.378;9.688;2022-10-16T05:17:16;1.80;;;1.20;;
20609;SDS011;10463;52.378;9.688;2022-10-16T05:20:01;1.90;;;1.10;;
20609;SDS011;10463;52.378;9.688;2022-10-16T05:22:48;1.50;;;0.93;;
20609;SDS011;10463;52.378;9.688;2022-10-16T05:25:34;1.70;;;0.90;;
20609;SDS011;10463;52.378;9.688;2022-10-16T05:28:19;1.60;;;0.80;;
20609;SDS011;10463;52.378;9.688;2022-10-16T05:31:04;2.67;;;1.00;;
20609;SDS011;10463;52.378;9.688;2022-10-16T05:33:50;1.40;;;1.00;;
20609;SDS011;10463;52.378;9.688;2022-10-16T05:36:35;1.40;;;0.90;;
20609;SDS011;10463;52.378;9.688;2022-10-16T05:39:22;1.50;;;0.90;;
20609;SDS011;10463;52.378;9.688;2022-10-16T05:42:07;1.70;;;1.07;;
20609;SDS011;10463;52.378;9.688;2022-10-16T05:44:52;2.23;;;1.00;;
20609;SDS011;10463;52.378;9.688;2022-10-16T05:47:37;1.60;;;0.90;;
20609;SDS011;10463;52.378;9.688;2022-10-16T05:50:22;1.60;;;1.00;;
20609;SDS011;10463;52.378;9.688;2022-10-16T05:53:07;1.80;;;1.10;;
20609;SDS011;10463;52.378;9.688;2022-10-16T05:55:53;1.70;;;1.03;;
20609;SDS011;10463;52.378;9.688;2022-10-16T05:58:39;1.50;;;1.00;;
20609;SDS011;10463;52.378;9.688;2022-10-16T06:01:25;1.50;;;0.90;;
20609;SDS011;10463;52.378;9.688;2022-10-16T06:04:09;1.60;;;1.00;;
20609;SDS011;10463;52.378;9.688;2022-10-16T06:06:54;1.60;;;0.90;;
20609;SDS011;10463;52.378;9.688;2022-10-16T06:09:48;1.70;;;1.07;;
20609;SDS011;10463;52.378;9.688;2022-10-16T06:12:35;1.60;;;1.10;;
20609;SDS011;10463;52.378;9.688;2022-10-16T06:15:19;1.80;;;1.20;;
20609;SDS011;10463;52.378;9.688;2022-10-16T06:18:04;1.30;;;0.80;;
20609;SDS011;10463;52.378;9.688;2022-10-16T06:20:49;1.50;;;1.00;;
20609;SDS011;10463;52.378;9.688;2022-10-16T06:23:33;3.00;;;0.93;;
20609;SDS011;10463;52.378;9.688;2022-10-16T06:26:20;1.40;;;0.97;;
20609;SDS011;10463;52.378;9.688;2022-10-16T06:29:09;1.60;;;1.20;;
20609;SDS011;10463;52.378;9.688;2022-10-16T06:31:53;1.43;;;0.90;;
20609;SDS011;10463;52.378;9.688;2022-10-16T06:34:38;1.67;;;0.90;;
20609;SDS011;10463;52.378;9.688;2022-10-16T06:37:24;2.57;;;1.20;;
20609;SDS011;10463;52.378;9.688;2022-10-16T06:40:10;1.50;;;1.10;;
20609;SDS011;10463;52.378;9.688;2022-10-16T06:42:55;1.80;;;1.13;;
20609;SDS011;10463;52.378;9.688;2022-10-16T06:45:41;1.73;;;0.97;;
20609;SDS011;10463;52.378;9.688;2022-10-16T06:48:26;2.23;;;1.00;;
20609;SDS011;10463;52.378;9.688;2022-10-16T06:51:13;1.50;;;1.03;;
20609;SDS011;10463;52.378;9.688;2022-10-16T06:53:59;2.30;;;1.13;;
20609;SDS011;10463;52.378;9.688;2022-10-16T06:56:44;2.00;;;1.20;;
20609;SDS011;10463;52.378;9.688;2022-10-16T06:59:29;1.70;;;1.00;;
20609;SDS011;10463;52.378;9.688;2022-10-16T07:02:14;1.70;;;0.90;;
20609;SDS011;10463;52.378;9.688;2022-10-16T07:04:59;1.50;;;1.10;;
20609;SDS011;10463;52.378;9.688;2022-10-16T07:07:44;1.60;;;1.10;;
20609;SDS011;10463;52.378;9.688;2022-10-16T07:10:29;1.77;;;1.20;;
20609;SDS011;10463;52.378;9.688;2022-10-16T07:13:14;2.20;;;1.30;;
20609;SDS011;10463;52.378;9.688;2022-10-16T07:16:04;1.87;;;0.93;;
20609;SDS011;10463;52.378;9.688;2022-10-16T07:18:51;1.60;;;1.00;;
20609;SDS011;10463;52.378;9.688;2022-10-16T07:21:41;1.30;;;0.90;;
20609;SDS011;10463;52.378;9.688;2022-10-16T07:24:26;1.50;;;1.00;;
20609;SDS011;10463;52.378;9.688;2022-10-16T07:27:11;1.57;;;1.03;;
20609;SDS011;10463;52.378;9.688;2022-10-16T07:29:55;2.73;;;1.50;;
20609;SDS011;10463;52.378;9.688;2022-10-16T07:32:40;3.77;;;1.37;;
20609;SDS011;10463;52.378;9.688;2022-10-16T07:35:26;3.30;;;1.03;;
20609;SDS011;10463;52.378;9.688;2022-10-16T07:38:11;1.73;;;1.30;;
20609;SDS011;10463;52.378;9.688;2022-10-16T07:40:57;2.30;;;1.30;;
20609;SDS011;10463;52.378;9.688;2022-10-16T07:43:45;1.70;;;1.00;;
20609;SDS011;10463;52.378;9.688;2022-10-16T07:46:30;1.40;;;0.97;;
20609;SDS011;10463;52.378;9.688;2022-10-16T07:49:17;3.10;;;1.10;;
20609;SDS011;10463;52.378;9.688;2022-10-16T07:52:04;1.60;;;1.20;;
20609;SDS011;10463;52.378;9.688;2022-10-16T07:54:48;1.70;;;1.00;;
20609;SDS011;10463;52.378;9.688;2022-10-16T07:57:33;1.60;;;1.00;;
20609;SDS011;10463;52.378;9.688;2022-10-16T08:00:17;1.47;;;1.00;;
20609;SDS011;10463;52.378;9.688;2022-10-16T08:03:03;1.80;;;1.00;;
20609;SDS011;10463;52.378;9.688;2022-10-16T08:05:48;2.23;;;0.90;;
20609;SDS011;10463;52.378;9.688;2022-10-16T08:08:34;2.33;;;1.23;;
20609;SDS011;10463;52.378;9.688;2022-10-16T08:11:19;2.00;;;1.20;;
20609;SDS011;10463;52.378;9.688;2022-10-16T08:14:10;1.50;;;1.00;;
20609;SDS011;10463;52.378;9.688;2022-10-16T08:16:56;2.17;;;1.17;;
20609;SDS011;10463;52.378;9.688;2022-10-16T08:19:44;1.73;;;1.10;;
20609;SDS011;10463;52.378;9.688;2022-10-16T08:22:29;1.70;;;1.10;;
20609;SDS011;10463;52.378;9.688;2022-10-16T08:25:14;2.17;;;1.00;;
20609;SDS011;10463;52.378;9.688;2022-10-16T08:27:59;2.10;;;1.10;;
20609;SDS011;10463;52.378;9.688;2022-10-16T08:30:44;2.23;;;0.93;;
20609;SDS011;10463;52.378;9.688;2022-10-16T08:33:29;1.90;;;0.90;;
20609;SDS011;10463;52.378;9.688;2022-10-16T08:36:14;1.47;;;0.80;;
20609;SDS011;10463;52.378;9.688;2022-10-16T08:39:00;1.40;;;0.83;;
20609;SDS011;10463;52.378;9.688;2022-10-16T08:45:26;1.60;;;0.77;;
20609;SDS011;10463;52.378;9.688;2022-10-16T08:48:20;1.40;;;0.80;;
20609;SDS011;10463;52.378;9.688;2022-10-16T08:51:11;1.50;;;0.93;;
20609;SDS011;10463;52.378;9.688;2022-10-16T08:54:03;1.30;;;0.83;;
20609;SDS011;10463;52.378;9.688;2022-10-16T08:56:50;1.80;;;1.00;;
20609;SDS011;10463;52.378;9.688;2022-10-16T08:59:36;1.90;;;1.10;;
20609;SDS011;10463;52.378;9.688;2022-10-16T09:02:26;1.70;;;1.00;;
20609;SDS011;10463;52.378;9.688;2022-10-16T09:05:36;2.03;;;0.90;;
20609;SDS011;10463;52.378;9.688;2022-10-16T09:08:34;1.57;;;0.80;;
20609;SDS011;10463;52.378;9.688;2022-10-16T09:11:29;3.13;;;0.93;;
20609;SDS011;10463;52.378;9.688;2022-10-16T09:14:39;1.90;;;1.03;;
20609;SDS011;10463;52.378;9.688;2022-10-16T09:17:37;1.30;;;0.70;;
20609;SDS011;10463;52.378;9.688;2022-10-16T09:20:38;1.73;;;0.90;;
20609;SDS011;10463;52.378;9.688;2022-10-16T09:23:34;2.00;;;1.17;;
20609;SDS011;10463;52.378;9.688;2022-10-16T09:26:21;1.50;;;0.90;;
20609;SDS011;10463;52.378;9.688;2022-10-16T09:29:06;1.40;;;0.70;;
20609;SDS011;10463;52.378;9.688;2022-10-16T09:31:55;1.40;;;0.80;;
20609;SDS011;10463;52.378;9.688;2022-10-16T09:34:55;2.23;;;0.80;;
20609;SDS011;10463;52.378;9.688;2022-10-16T09:37:42;1.50;;;1.00;;
20609;SDS011;10463;52.378;9.688;2022-10-16T09:40:29;1.70;;;1.10;;
20609;SDS011;10463;52.378;9.688;2022-10-16T09:43:23;1.30;;;0.70;;
20609;SDS011;10463;52.378;9.688;2022-10-16T09:46:22;2.07;;;0.80;;
20609;SDS011;10463;52.378;9.688;2022-10-16T09:49:21;1.53;;;0.90;;
20609;SDS011;10463;52.378;9.688;2022-10-16T09:52:12;1.20;;;0.67;;
20609;SDS011;10463;52.378;9.688;2022-10-16T09:55:00;1.40;;;0.70;;
20609;SDS011;10463;52.378;9.688;2022-10-16T09:57:50;1.30;;;0.70;;
20609;SDS011;10463;52.378;9.688;2022-10-16T10:00:35;1.50;;;0.90;;
20609;SDS011;10463;52.378;9.688;2022-10-16T10:03:32;1.50;;;0.80;;
20609;SDS011;10463;52.378;9.688;2022-10-16T10:06:25;1.40;;;0.80;;
20609;SDS011;10463;52.378;9.688;2022-10-16T10:09:20;1.93;;;0.80;;
20609;SDS011;10463;52.378;9.688;2022-10-16T10:12:16;1.40;;;0.80;;
20609;SDS011;10463;52.378;9.688;2022-10-16T10:15:04;3.10;;;1.33;;
20609;SDS011;10463;52.378;9.688;2022-10-16T10:17:56;1.60;;;1.00;;
20609;SDS011;10463;52.378;9.688;2022-10-16T10:20:41;1.30;;;0.70;;
20609;SDS011;10463;52.378;9.688;2022-10-16T10:23:29;1.60;;;0.80;;
20609;SDS011;10463;52.378;9.688;2022-10-16T10:26:16;1.30;;;0.67;;
20609;SDS011;10463;52.378;9.688;2022-10-16T10:29:07;2.23;;;0.70;;
20609;SDS011;10463;52.378;9.688;2022-10-16T10:32:07;2.33;;;0.80;;
20609;SDS011;10463;52.378;9.688;2022-10-16T10:35:07;1.53;;;0.70;;
20609;SDS011;10463;52.378;9.688;2022-10-16T10:38:06;1.37;;;0.70;;
20609;SDS011;10463;52.378;9.688;2022-10-16T10:41:09;1.30;;;0.73;;
20609;SDS011;10463;52.378;9.688;2022-10-16T10:44:13;1.40;;;0.90;;
20609;SDS011;10463;52.378;9.688;2022-10-16T10:47:10;1.87;;;0.80;;
20609;SDS011;10463;52.378;9.688;2022-10-16T10:50:08;1.40;;;0.80;;
20609;SDS011;10463;52.378;9.688;2022-10-16T10:53:05;1.83;;;0.80;;
20609;SDS011;10463;52.378;9.688;2022-10-16T10:56:05;1.20;;;0.67;;
20609;SDS011;10463;52.378;9.688;2022-10-16T10:59:14;1.30;;;0.70;;
20609;SDS011;10463;52.378;9.688;2022-10-16T11:02:16;1.60;;;0.70;;
20609;SDS011;10463;52.378;9.688;2022-10-16T11:05:23;1.50;;;0.80;;
20609;SDS011;10463;52.378;9.688;2022-10-16T11:08:17;1.60;;;0.70;;
20609;SDS011;10463;52.378;9.688;2022-10-16T11:11:10;1.40;;;0.70;;
20609;SDS011;10463;52.378;9.688;2022-10-16T11:14:00;1.30;;;0.70;;
20609;SDS011;10463;52.378;9.688;2022-10-16T11:16:52;2.13;;;0.80;;
20609;SDS011;10463;52.378;9.688;2022-10-16T11:19:44;1.50;;;0.83;;
20609;SDS011;10463;52.378;9.688;2022-10-16T11:22:34;1.50;;;0.70;;
20609;SDS011;10463;52.378;9.688;2022-10-16T11:25:23;1.30;;;0.70;;
20609;SDS011;10463;52.378;9.688;2022-10-16T11:28:14;1.33;;;0.80;;
20609;SDS011;10463;52.378;9.688;2022-10-16T11:31:07;1.20;;;0.70;;
20609;SDS011;10463;52.378;9.688;2022-10-16T11:33:59;1.30;;;0.70;;
20609;SDS011;10463;52.378;9.688;2022-10-16T11:36:50;1.40;;;0.60;;
20609;SDS011;10463;52.378;9.688;2022-10-16T11:39:41;1.20;;;0.60;;
20609;SDS011;10463;52.378;9.688;2022-10-16T11:42:32;1.83;;;0.80;;
20609;SDS011;10463;52.378;9.688;2022-10-16T11:45:28;1.50;;;0.70;;
20609;SDS011;10463;52.378;9.688;2022-10-16T11:48:21;1.43;;;0.70;;
20609;SDS011;10463;52.378;9.688;2022-10-16T11:51:14;1.40;;;0.80;;
20609;SDS011;10463;52.378;9.688;2022-10-16T11:54:08;1.20;;;0.70;;
20609;SDS011;10463;52.378;9.688;2022-10-16T11:57:11;1.43;;;0.70;;
20609;SDS011;10463;52.378;9.688;2022-10-16T12:00:04;1.40;;;0.80;;
20609;SDS011;10463;52.378;9.688;2022-10-16T12:03:01;1.20;;;0.60;;
20609;SDS011;10463;52.378;9.688;2022-10-16T12:05:58;1.30;;;0.70;;
20609;SDS011;10463;52.378;9.688;2022-10-16T12:08:57;1.50;;;0.70;;
20609;SDS011;10463;52.378;9.688;2022-10-16T12:11:43;1.40;;;0.63;;
20609;SDS011;10463;52.378;9.688;2022-10-16T12:14:37;1.47;;;0.70;;
20609;SDS011;10463;52.378;9.688;2022-10-16T12:17:26;1.30;;;0.70;;
20609;SDS011;10463;52.378;9.688;2022-10-16T12:20:26;1.20;;;0.60;;
20609;SDS011;10463;52.378;9.688;2022-10-16T12:23:18;1.30;;;0.70;;
20609;SDS011;10463;52.378;9.688;2022-10-16T12:26:06;1.20;;;0.60;;
20609;SDS011;10463;52.378;9.688;2022-10-16T12:28:51;1.20;;;0.60;;
20609;SDS011;10463;52.378;9.688;2022-10-16T12:31:37;1.40;;;0.60;;
20609;SDS011;10463;52.378;9.688;2022-10-16T12:34:28;1.20;;;0.60;;
20609;SDS011;10463;52.378;9.688;2022-10-16T12:37:21;1.30;;;0.70;;
20609;SDS011;10463;52.378;9.688;2022-10-16T12:40:13;1.30;;;0.70;;
20609;SDS011;10463;52.378;9.688;2022-10-16T12:43:11;1.50;;;0.73;;
20609;SDS011;10463;52.378;9.688;2022-10-16T12:46:33;1.20;;;0.60;;
20609;SDS011;10463;52.378;9.688;2022-10-16T12:49:29;1.20;;;0.60;;
20609;SDS011;10463;52.378;9.688;2022-10-16T12:52:28;1.20;;;0.60;;
20609;SDS011;10463;52.378;9.688;2022-10-16T12:55:21;1.20;;;0.60;;
20609;SDS011;10463;52.378;9.688;2022-10-16T12:58:13;1.23;;;0.60;;
20609;SDS011;10463;52.378;9.688;2022-10-16T13:01:25;1.43;;;0.70;;
20609;SDS011;10463;52.378;9.688;2022-10-16T13:04:44;1.20;;;0.60;;
20609;SDS011;10463;52.378;9.688;2022-10-16T13:07:46;1.47;;;0.70;;
20609;SDS011;10463;52.378;9.688;2022-10-16T13:10:41;1.20;;;0.60;;
20609;SDS011;10463;52.378;9.688;2022-10-16T13:14:02;1.40;;;0.70;;
20609;SDS011;10463;52.378;9.688;2022-10-16T13:17:02;1.50;;;0.60;;
20609;SDS011;10463;52.378;9.688;2022-10-16T13:19:58;1.20;;;0.60;;
20609;SDS011;10463;52.378;9.688;2022-10-16T13:22:59;1.40;;;0.90;;
20609;SDS011;10463;52.378;9.688;2022-10-16T13:26:01;1.20;;;0.60;;
20609;SDS011;10463;52.378;9.688;2022-10-16T13:28:59;1.30;;;0.70;;
20609;SDS011;10463;52.378;9.688;2022-10-16T13:31:44;1.20;;;0.60;;
20609;SDS011;10463;52.378;9.688;2022-10-16T13:34:29;1.33;;;0.60;;
20609;SDS011;10463;52.378;9.688;2022-10-16T13:37:17;1.20;;;0.70;;
20609;SDS011;10463;52.378;9.688;2022-10-16T13:40:14;1.30;;;0.63;;
20609;SDS011;10463;52.378;9.688;2022-10-16T13:43:03;1.30;;;0.70;;
20609;SDS011;10463;52.378;9.688;2022-10-16T13:46:00;1.30;;;0.60;;
20609;SDS011;10463;52.378;9.688;2022-10-16T13:48:56;1.20;;;0.60;;
20609;SDS011;10463;52.378;9.688;2022-10-16T13:51:41;1.20;;;0.60;;
20609;SDS011;10463;52.378;9.688;2022-10-16T13:54:37;1.37;;;0.60;;
20609;SDS011;10463;52.378;9.688;2022-10-16T13:57:24;1.20;;;0.63;;
20609;SDS011;10463;52.378;9.688;2022-10-16T14:00:23;2.27;;;0.80;;
20609;SDS011;10463;52.378;9.688;2022-10-16T14:03:14;1.20;;;0.60;;
20609;SDS011;10463;52.378;9.688;2022-10-16T14:06:01;1.30;;;0.70;;
20609;SDS011;10463;52.378;9.688;2022-10-16T14:08:50;1.40;;;0.80;;
20609;SDS011;10463;52.378;9.688;2022-10-16T14:11:44;1.50;;;0.70;;
20609;SDS011;10463;52.378;9.688;2022-10-16T14:14:35;1.40;;;0.70;;
20609;SDS011;10463;52.378;9.688;2022-10-16T14:17:26;1.20;;;0.70;;
20609;SDS011;10463;52.378;9.688;2022-10-16T14:20:14;1.20;;;0.70;;
20609;SDS011;10463;52.378;9.688;2022-10-16T14:23:01;1.30;;;0.67;;
20609;SDS011;10463;52.378;9.688;2022-10-16T14:25:47;1.40;;;0.70;;
20609;SDS011;10463;52.378;9.688;2022-10-16T14:28:32;1.20;;;0.60;;
20609;SDS011;10463;52.378;9.688;2022-10-16T14:31:27;1.30;;;0.60;;
20609;SDS011;10463;52.378;9.688;2022-10-16T14:34:24;1.20;;;0.60;;
20609;SDS011;10463;52.378;9.688;2022-10-16T14:37:17;1.30;;;0.70;;
20609;SDS011;10463;52.378;9.688;2022-10-16T14:40:13;1.57;;;0.70;;
20609;SDS011;10463;52.378;9.688;2022-10-16T14:43:00;1.20;;;0.70;;
20609;SDS011;10463;52.378;9.688;2022-10-16T14:45:50;1.30;;;0.60;;
20609;SDS011;10463;52.378;9.688;2022-10-16T14:48:41;1.37;;;0.70;;
20609;SDS011;10463;52.378;9.688;2022-10-16T14:51:27;1.40;;;0.73;;
20609;SDS011;10463;52.378;9.688;2022-10-16T14:54:12;1.30;;;0.70;;
20609;SDS011;10463;52.378;9.688;2022-10-16T14:56:57;1.20;;;0.60;;
20609;SDS011;10463;52.378;9.688;2022-10-16T14:59:43;1.33;;;0.70;;
20609;SDS011;10463;52.378;9.688;2022-10-16T15:02:29;1.37;;;0.77;;
20609;SDS011;10463;52.378;9.688;2022-10-16T15:05:19;1.30;;;0.70;;
20609;SDS011;10463;52.378;9.688;2022-10-16T15:08:06;1.40;;;0.70;;
20609;SDS011;10463;52.378;9.688;2022-10-16T15:10:51;1.40;;;0.77;;
20609;SDS011;10463;52.378;9.688;2022-10-16T15:13:36;1.40;;;0.80;;
20609;SDS011;10463;52.378;9.688;2022-10-16T15:16:23;1.70;;;0.80;;
20609;SDS011;10463;52.378;9.688;2022-10-16T15:19:08;1.20;;;0.70;;
20609;SDS011;10463;52.378;9.688;2022-10-16T15:21:54;1.30;;;0.70;;
20609;SDS011;10463;52.378;9.688;2022-10-16T15:24:39;1.40;;;0.80;;
20609;SDS011;10463;52.378;9.688;2022-10-16T15:27:24;1.70;;;1.00;;
20609;SDS011;10463;52.378;9.688;2022-10-16T15:30:09;1.40;;;0.70;;
20609;SDS011;10463;52.378;9.688;2022-10-16T15:32:55;1.40;;;0.87;;
20609;SDS011;10463;52.378;9.688;2022-10-16T15:35:39;1.30;;;0.80;;
20609;SDS011;10463;52.378;9.688;2022-10-16T15:38:26;1.23;;;0.60;;
20609;SDS011;10463;52.378;9.688;2022-10-16T15:41:12;1.43;;;0.80;;
20609;SDS011;10463;52.378;9.688;2022-10-16T15:43:57;1.33;;;0.70;;
20609;SDS011;10463;52.378;9.688;2022-10-16T15:46:41;1.43;;;0.80;;
20609;SDS011;10463;52.378;9.688;2022-10-16T15:49:26;1.20;;;0.63;;
20609;SDS011;10463;52.378;9.688;2022-10-16T15:52:10;1.30;;;0.73;;
20609;SDS011;10463;52.378;9.688;2022-10-16T15:54:56;1.50;;;0.80;;
20609;SDS011;10463;52.378;9.688;2022-10-16T15:57:42;1.60;;;0.80;;
20609;SDS011;10463;52.378;9.688;2022-10-16T16:00:27;1.57;;;0.70;;
20609;SDS011;10463;52.378;9.688;2022-10-16T16:03:12;1.40;;;0.80;;
20609;SDS011;10463;52.378;9.688;2022-10-16T16:05:58;2.10;;;1.00;;
20609;SDS011;10463;52.378;9.688;2022-10-16T16:08:47;1.30;;;0.80;;
20609;SDS011;10463;52.378;9.688;2022-10-16T16:11:33;1.47;;;0.87;;
20609;SDS011;10463;52.378;9.688;2022-10-16T16:14:21;1.60;;;0.70;;
20609;SDS011;10463;52.378;9.688;2022-10-16T16:17:08;1.30;;;0.80;;
20609;SDS011;10463;52.378;9.688;2022-10-16T16:19:53;1.67;;;1.00;;
20609;SDS011;10463;52.378;9.688;2022-10-16T16:22:38;1.33;;;0.70;;
20609;SDS011;10463;52.378;9.688;2022-10-16T16:25:23;1.40;;;0.80;;
20609;SDS011;10463;52.378;9.688;2022-10-16T16:28:09;1.60;;;0.97;;
20609;SDS011;10463;52.378;9.688;2022-10-16T16:30:54;1.50;;;0.90;;
20609;SDS011;10463;52.378;9.688;2022-10-16T16:33:39;1.63;;;1.00;;
20609;SDS011;10463;52.378;9.688;2022-10-16T16:36:24;1.50;;;0.90;;
20609;SDS011;10463;52.378;9.688;2022-10-16T16:39:09;1.70;;;0.97;;
20609;SDS011;10463;52.378;9.688;2022-10-16T16:41:55;1.80;;;0.90;;
20609;SDS011;10463;52.378;9.688;2022-10-16T16:44:42;1.40;;;0.90;;
20609;SDS011;10463;52.378;9.688;2022-10-16T16:47:26;1.50;;;0.90;;
20609;SDS011;10463;52.378;9.688;2022-10-16T16:50:11;1.97;;;1.03;;
20609;SDS011;10463;52.378;9.688;2022-10-16T16:52:56;1.63;;;0.90;;
20609;SDS011;10463;52.378;9.688;2022-10-16T16:55:40;1.70;;;1.20;;
20609;SDS011;10463;52.378;9.688;2022-10-16T16:58:25;1.57;;;1.03;;
20609;SDS011;10463;52.378;9.688;2022-10-16T17:01:11;3.30;;;1.07;;
20609;SDS011;10463;52.378;9.688;2022-10-16T17:03:56;1.83;;;1.10;;